Time;durP1;ratioP1;P1;durP2;ratioP2;P2;SDS_P1;SDS_P2;PMS_P1;PMS_P2;Temp;Humidity;BMP_temperature;BMP_pressure;BME280_temperature;BME280_humidity;BME280_pressure;Samples;Min_cycle;Max_cycle;Signal;HPM_P1;HPM_P2
2023/01/21 00:01:27;;;;;;;9.73;4.13;;;;;;;8.45;69.76;98635.91;5098051;28;20203;-95
2023/01/21 00:03:53;;;;;;;10.73;4.97;;;;;;;8.43;70.07;98642.97;5097623;28;20190;-94
2023/01/21 00:06:18;;;;;;;14.53;5.60;;;;;;;8.52;70.88;98627.66;5097475;28;20627;-96
2023/01/21 00:08:44;;;;;;;12.57;6.37;;;;;;;8.64;70.41;98611.38;5097232;28;20207;-94
2023/01/21 00:11:13;;;;;;;13.53;5.37;;;;;;;8.64;70.40;98623.59;5097099;28;20600;-94
2023/01/21 00:13:47;;;;;;;12.90;5.90;;;;;;;8.58;70.77;98629.13;5097018;28;20180;-95
2023/01/21 00:16:17;;;;;;;11.40;5.10;;;;;;;8.59;71.05;98636.88;5097096;28;20526;-94
2023/01/21 00:18:46;;;;;;;12.57;5.77;;;;;;;8.69;70.98;98629.41;5097970;28;20198;-96
2023/01/21 00:21:17;;;;;;;15.13;5.50;;;;;;;8.69;70.88;98636.41;5096817;28;20674;-96
2023/01/21 00:23:46;;;;;;;13.70;5.60;;;;;;;8.60;70.55;98640.31;5097458;28;20178;-96
2023/01/21 00:26:12;;;;;;;12.20;6.07;;;;;;;8.61;70.82;98647.25;5096911;28;20193;-96
2023/01/21 00:28:40;;;;;;;11.67;5.93;;;;;;;8.62;70.75;98659.41;5097204;28;20176;-95
2023/01/21 00:31:09;;;;;;;11.80;5.63;;;;;;;8.58;70.09;98657.84;5097155;28;20236;-96
2023/01/21 00:33:39;;;;;;;14.20;6.07;;;;;;;8.72;69.89;98644.94;5096791;28;20625;-95
2023/01/21 00:36:07;;;;;;;9.30;5.03;;;;;;;8.77;69.23;98632.47;5096609;28;20255;-95
2023/01/21 00:38:35;;;;;;;11.30;4.40;;;;;;;8.70;69.41;98644.13;5096277;28;20240;-96
2023/01/21 00:41:03;;;;;;;9.03;4.97;;;;;;;8.54;70.17;98641.50;5096548;28;20310;-94
2023/01/21 00:43:29;;;;;;;9.67;5.07;;;;;;;8.41;69.82;98644.84;5096630;28;20185;-95
2023/01/21 00:46:02;;;;;;;10.60;4.73;;;;;;;8.50;69.83;98646.97;5096751;28;20342;-95
2023/01/21 00:48:27;;;;;;;9.93;4.30;;;;;;;8.59;69.92;98655.16;5097060;28;20176;-95
2023/01/21 00:50:59;;;;;;;9.10;4.33;;;;;;;8.33;70.42;98650.44;5096461;28;20192;-95
2023/01/21 00:53:29;;;;;;;8.40;3.63;;;;;;;8.29;71.11;98645.44;5096749;28;20172;-94
2023/01/21 00:56:03;;;;;;;7.27;3.87;;;;;;;8.28;71.89;98641.16;5096970;28;20163;-94
2023/01/21 00:58:29;;;;;;;7.80;3.37;;;;;;;8.25;71.82;98641.28;5093491;28;20191;-95
2023/01/21 01:01:15;;;;;;;13.40;3.33;;;;;;;8.28;71.87;98651.63;5096935;28;20164;-94
2023/01/21 01:03:44;;;;;;;6.43;3.00;;;;;;;8.37;71.74;98646.75;5095589;28;20168;-95
2023/01/21 01:06:13;;;;;;;6.50;2.77;;;;;;;8.43;71.56;98649.06;5096327;28;20235;-96
2023/01/21 01:08:41;;;;;;;8.37;3.37;;;;;;;8.49;71.83;98660.97;5096243;28;20179;-94
2023/01/21 01:11:11;;;;;;;9.70;3.40;;;;;;;8.51;71.50;98656.50;5096142;28;20546;-94
2023/01/21 01:13:37;;;;;;;11.43;4.40;;;;;;;8.41;72.01;98663.94;5096255;28;20171;-94
2023/01/21 01:16:03;;;;;;;6.63;3.00;;;;;;;8.41;72.17;98655.28;5096212;28;20515;-95
2023/01/21 01:18:34;;;;;;;3.37;2.00;;;;;;;8.39;71.78;98652.72;5096837;28;20226;-94
2023/01/21 01:21:02;;;;;;;6.43;2.97;;;;;;;8.42;71.84;98652.59;5114476;28;20163;-95
2023/01/21 01:23:28;;;;;;;6.30;2.67;;;;;;;8.32;71.27;98655.75;5096510;28;20179;-95
2023/01/21 01:25:58;;;;;;;5.87;2.70;;;;;;;8.31;71.09;98659.25;5096384;28;20183;-95
2023/01/21 01:28:25;;;;;;;5.37;2.67;;;;;;;8.35;71.38;98664.28;5096916;28;20179;-94
2023/01/21 01:30:50;;;;;;;4.30;2.50;;;;;;;8.37;70.74;98661.56;5096466;28;20458;-95
2023/01/21 01:33:18;;;;;;;8.77;2.70;;;;;;;8.28;70.59;98670.72;5096089;28;20246;-94
2023/01/21 01:35:46;;;;;;;4.97;2.40;;;;;;;8.16;70.83;98665.22;5096353;28;20183;-95
2023/01/21 01:38:15;;;;;;;3.50;1.67;;;;;;;8.27;70.40;98668.19;5096066;28;20189;-94
2023/01/21 01:40:41;;;;;;;5.40;1.83;;;;;;;8.41;69.89;98660.50;5095966;28;20182;-95
2023/01/21 01:43:16;;;;;;;3.13;1.53;;;;;;;8.32;70.21;98666.19;5095826;28;20642;-95
2023/01/21 01:45:42;;;;;;;4.20;1.53;;;;;;;8.32;70.42;98656.59;5095907;28;20173;-95
2023/01/21 01:48:14;;;;;;;3.27;1.30;;;;;;;8.27;69.88;98662.97;5096438;28;20241;-94
2023/01/21 01:50:40;;;;;;;2.83;1.30;;;;;;;8.29;69.91;98653.28;5095929;28;20190;-95
2023/01/21 01:53:07;;;;;;;4.47;1.40;;;;;;;8.38;69.62;98650.22;5095824;28;20329;-94
2023/01/21 01:55:35;;;;;;;4.03;1.93;;;;;;;8.42;69.64;98642.13;5096057;28;20182;-96
2023/01/21 01:58:03;;;;;;;2.03;1.10;;;;;;;8.39;69.47;98650.13;5095918;28;20614;-95
2023/01/21 02:00:29;;;;;;;4.47;1.77;;;;;;;8.32;69.78;98655.75;5095639;28;20212;-94
2023/01/21 02:05:41;;;;;;;4.53;1.47;;;;;;;8.14;70.26;98644.44;5114179;28;20179;-96
2023/01/21 02:08:07;;;;;;;3.47;1.13;;;;;;;8.11;70.93;98646.34;5095771;28;20267;-94
2023/01/21 02:10:33;;;;;;;4.33;1.23;;;;;;;8.07;71.17;98630.84;5095843;28;20178;-95
2023/01/21 02:13:03;;;;;;;3.83;1.50;;;;;;;8.10;71.08;98642.06;5095636;28;20183;-95
2023/01/21 02:15:46;;;;;;;5.07;1.40;;;;;;;8.15;71.39;98633.06;5099461;28;20205;-95
2023/01/21 02:18:30;;;;;;;4.60;1.20;;;;;;;8.21;71.27;98637.97;5099442;28;20169;-94
2023/01/21 02:21:09;;;;;;;2.53;1.20;;;;;;;8.13;72.08;98645.34;5099338;28;20621;-94
2023/01/21 02:23:54;;;;;;;1.70;0.90;;;;;;;8.11;71.69;98630.69;5099543;28;20187;-96
2023/01/21 02:26:28;;;;;;;2.17;0.73;;;;;;;8.18;71.75;98626.84;5099469;28;20253;-95
2023/01/21 02:29:23;;;;;;;2.10;0.93;;;;;;;8.13;71.38;98624.47;5099148;28;20171;-96
2023/01/21 02:32:24;;;;;;;4.93;1.37;;;;;;;8.16;71.15;98628.69;5098907;28;20167;-94
2023/01/21 02:34:55;;;;;;;3.57;1.23;;;;;;;8.19;71.51;98628.53;5076031;28;20184;-94
2023/01/21 02:37:37;;;;;;;3.00;1.00;;;;;;;8.02;71.29;98637.22;5099216;28;20267;-95
2023/01/21 02:40:21;;;;;;;7.87;1.10;;;;;;;7.94;71.35;98629.75;5117361;28;20170;-94
2023/01/21 02:43:03;;;;;;;2.57;1.07;;;;;;;7.88;71.81;98630.09;5098830;28;20195;-96
2023/01/21 02:45:40;;;;;;;2.27;1.10;;;;;;;7.83;72.31;98626.88;5099462;28;20179;-95
2023/01/21 02:48:30;;;;;;;2.63;1.20;;;;;;;7.87;71.74;98628.41;5098751;28;20171;-95
2023/01/21 02:50:56;;;;;;;2.87;1.07;;;;;;;7.97;71.88;98627.00;5099315;28;20166;-95
2023/01/21 02:53:29;;;;;;;2.93;1.30;;;;;;;8.00;72.22;98629.47;5099699;28;20251;-95
2023/01/21 02:55:56;;;;;;;3.43;0.97;;;;;;;8.05;71.73;98627.47;5098586;28;20183;-95
2023/01/21 02:58:32;;;;;;;2.87;1.20;;;;;;;8.00;72.19;98626.84;5099042;28;20174;-94
2023/01/21 03:01:25;;;;;;;3.17;1.50;;;;;;;8.01;72.05;98625.09;5099294;28;20178;-94
2023/01/21 03:03:56;;;;;;;8.67;2.53;;;;;;;7.95;72.44;98635.84;5098407;28;20176;-95
2023/01/21 03:06:48;;;;;;;8.40;3.43;;;;;;;7.93;73.66;98632.47;5098739;28;20329;-95
2023/01/21 03:09:22;;;;;;;8.40;4.30;;;;;;;8.10;73.29;98613.38;5098660;28;20186;-95
2023/01/21 03:12:27;;;;;;;9.90;4.60;;;;;;;8.04;74.45;98617.94;5098822;28;20324;-96
2023/01/21 03:18:15;;;;;;;8.83;4.20;;;;;;;8.04;75.28;98625.78;5116587;28;20220;-96
2023/01/21 03:20:50;;;;;;;7.10;3.53;;;;;;;8.12;75.17;98616.72;5098365;28;20178;-96
2023/01/21 03:23:22;;;;;;;9.67;3.47;;;;;;;8.03;75.58;98612.81;5098382;28;20193;-95
2023/01/21 03:25:49;;;;;;;8.13;3.57;;;;;;;8.10;75.69;98619.41;5096856;28;20604;-96
2023/01/21 03:28:24;;;;;;;13.80;4.23;;;;;;;7.71;77.35;98630.06;5098637;28;20209;-96
2023/01/21 03:31:04;;;;;;;11.53;2.90;;;;;;;7.37;80.15;98628.25;5098315;28;20169;-96
2023/01/21 03:33:33;;;;;;;8.80;1.90;;;;;;;7.28;82.16;98633.06;5098019;28;20531;-96
2023/01/21 03:36:04;;;;;;;6.93;2.97;;;;;;;7.40;82.38;98628.09;5098065;28;20189;-95
2023/01/21 03:38:35;;;;;;;10.33;3.67;;;;;;;7.38;82.20;98621.28;5098502;28;20170;-95
2023/01/21 03:41:11;;;;;;;12.10;3.93;;;;;;;7.65;81.17;98621.72;5098075;28;20175;-96
2023/01/21 03:43:40;;;;;;;8.00;3.30;;;;;;;7.89;80.46;98618.72;5097744;28;20208;-94
2023/01/21 03:46:37;;;;;;;7.57;4.20;;;;;;;7.91;79.99;98618.66;5097643;28;20236;-96
2023/01/21 03:49:10;;;;;;;9.77;3.03;;;;;;;7.38;82.59;98623.88;5097976;28;20171;-95
2023/01/21 03:51:40;;;;;;;7.77;3.60;;;;;;;7.01;84.81;98619.56;5098627;28;20577;-96
2023/01/21 03:54:06;;;;;;;16.67;7.43;;;;;;;6.79;86.47;98613.63;5097318;28;20606;-95
2023/01/21 03:56:33;;;;;;;16.07;8.27;;;;;;;7.08;85.38;98609.69;5098025;28;20279;-95
2023/01/21 03:58:59;;;;;;;18.83;9.50;;;;;;;7.26;84.62;98609.66;5097440;28;20223;-94
2023/01/21 04:01:24;;;;;;;16.63;9.67;;;;;;;7.00;85.25;98611.78;5097182;28;20206;-96
2023/01/21 04:03:50;;;;;;;16.77;8.20;;;;;;;7.08;84.90;98609.69;5098062;28;20223;-94
2023/01/21 04:06:17;;;;;;;13.93;7.60;;;;;;;7.15;84.97;98596.31;5097229;28;20263;-95
2023/01/21 04:08:43;;;;;;;10.33;5.43;;;;;;;7.41;83.51;98610.72;5098010;28;20606;-96
2023/01/21 04:11:09;;;;;;;13.07;3.43;;;;;;;6.93;85.37;98613.00;5097690;28;20200;-95
2023/01/21 04:13:34;;;;;;;6.93;3.60;;;;;;;6.87;85.72;98616.72;5097217;28;20193;-96
2023/01/21 04:16:00;;;;;;;7.57;3.03;;;;;;;6.92;85.69;98599.13;5097114;28;20177;-95
2023/01/21 04:18:25;;;;;;;7.13;2.77;;;;;;;7.20;84.53;98615.19;5097134;28;20545;-95
2023/01/21 04:20:51;;;;;;;8.80;3.33;;;;;;;7.39;83.98;98625.56;5096942;28;20204;-95
2023/01/21 04:23:16;;;;;;;4.13;2.00;;;;;;;7.53;83.01;98625.75;5097141;28;20509;-95
2023/01/21 04:25:42;;;;;;;8.93;3.03;;;;;;;7.41;82.16;98634.16;5096954;28;20176;-95
2023/01/21 04:28:07;;;;;;;5.10;2.27;;;;;;;7.37;83.00;98635.22;5096813;28;20251;-95
2023/01/21 04:30:33;;;;;;;4.93;2.53;;;;;;;7.40;82.66;98653.31;5096760;28;20189;-95
2023/01/21 04:32:58;;;;;;;8.50;2.57;;;;;;;7.23;82.75;98651.50;5096989;28;20173;-94
2023/01/21 04:35:24;;;;;;;5.30;2.30;;;;;;;7.24;83.00;98647.16;5097033;28;20193;-94
2023/01/21 04:37:49;;;;;;;10.23;2.77;;;;;;;7.17;83.84;98662.25;5095627;28;20191;-94
2023/01/21 04:40:15;;;;;;;12.40;2.40;;;;;;;7.35;82.97;98655.31;5096698;28;20289;-94
2023/01/21 04:42:41;;;;;;;7.00;2.17;;;;;;;7.63;81.42;98655.69;5096547;28;20233;-95
2023/01/21 04:45:07;;;;;;;5.63;2.57;;;;;;;7.59;81.20;98648.94;5096507;28;20179;-96
2023/01/21 04:47:33;;;;;;;8.03;2.70;;;;;;;7.74;80.55;98652.56;5096946;28;20207;-96
2023/01/21 04:49:58;;;;;;;4.57;2.43;;;;;;;7.79;79.80;98656.63;5097048;28;20189;-94
2023/01/21 04:52:24;;;;;;;6.00;2.40;;;;;;;7.60;79.43;98666.25;5096530;28;20644;-95
2023/01/21 04:54:49;;;;;;;11.50;2.47;;;;;;;7.69;80.32;98670.19;5096674;28;20215;-94
2023/01/21 04:57:15;;;;;;;4.77;1.90;;;;;;;7.87;79.41;98680.56;5096811;28;20672;-93
2023/01/21 04:59:40;;;;;;;10.30;2.27;;;;;;;7.97;78.61;98681.81;5096287;28;20550;-95
2023/01/21 05:02:06;;;;;;;10.10;3.23;;;;;;;8.11;78.12;98682.91;5097063;28;20605;-94
2023/01/21 05:04:31;;;;;;;14.83;6.63;;;;;;;8.21;77.42;98684.13;5096518;28;20511;-94
2023/01/21 05:06:57;;;;;;;94.10;33.07;;;;;;;8.26;77.27;98682.13;5096324;28;20172;-94
2023/01/21 05:09:23;;;;;;;29.77;12.33;;;;;;;8.26;75.82;98676.91;5096636;28;20207;-95
2023/01/21 05:11:48;;;;;;;10.23;3.87;;;;;;;8.23;75.57;98677.91;5096500;28;20182;-95
2023/01/21 05:14:14;;;;;;;6.10;2.37;;;;;;;8.13;75.69;98681.03;5096212;28;20178;-96
2023/01/21 05:16:39;;;;;;;13.50;2.30;;;;;;;8.07;76.05;98686.59;5096669;28;20693;-96
2023/01/21 05:19:05;;;;;;;7.47;2.30;;;;;;;8.11;75.96;98683.75;5114387;28;20259;-95
2023/01/21 05:21:33;;;;;;;5.53;1.70;;;;;;;8.16;76.12;98686.97;5096078;28;20233;-95
2023/01/21 05:23:58;;;;;;;3.50;1.63;;;;;;;8.05;77.16;98684.88;5096126;28;20630;-95
2023/01/21 05:26:23;;;;;;;4.57;2.10;;;;;;;8.27;76.76;98691.69;5096158;28;20186;-95
2023/01/21 05:28:49;;;;;;;9.57;2.87;;;;;;;8.43;76.10;98695.22;5096102;28;20188;-95
2023/01/21 05:31:15;;;;;;;7.53;2.63;;;;;;;8.55;75.80;98686.75;5096114;28;20289;-96
2023/01/21 05:33:44;;;;;;;8.10;2.50;;;;;;;8.74;72.57;98694.47;5096321;28;20172;-95
2023/01/21 05:36:10;;;;;;;7.67;3.03;;;;;;;8.57;73.51;98695.34;5096081;28;20186;-94
2023/01/21 05:38:36;;;;;;;4.10;2.00;;;;;;;8.53;73.62;98697.28;5096038;28;20176;-96
2023/01/21 05:41:03;;;;;;;4.13;2.13;;;;;;;8.55;73.70;98705.03;5096800;28;20273;-95
2023/01/21 05:43:29;;;;;;;5.17;1.83;;;;;;;8.52;73.41;98702.56;5096494;28;20209;-95
2023/01/21 05:46:00;;;;;;;7.63;2.80;;;;;;;8.62;73.75;98702.00;5095859;28;20174;-95
2023/01/21 05:48:27;;;;;;;5.17;2.37;;;;;;;8.69;73.10;98697.34;5096503;28;20201;-95
2023/01/21 05:50:53;;;;;;;4.80;2.23;;;;;;;8.67;72.65;98704.41;5099861;28;20535;-95
2023/01/21 05:53:18;;;;;;;3.83;2.00;;;;;;;8.64;72.15;98704.56;5099796;28;20181;-95
2023/01/21 05:55:44;;;;;;;7.93;2.03;;;;;;;8.46;71.89;98697.69;5099892;28;20607;-94
2023/01/21 05:58:12;;;;;;;6.00;2.13;;;;;;;8.38;71.98;98698.06;5100416;28;20218;-95
2023/01/21 06:00:40;;;;;;;5.20;2.50;;;;;;;8.21;72.24;98705.00;5100278;28;20221;-94
2023/01/21 06:03:06;;;;;;;5.67;2.07;;;;;;;8.09;74.31;98708.22;5100469;28;20195;-96
2023/01/21 06:05:42;;;;;;;3.70;1.87;;;;;;;8.04;74.05;98708.47;5099560;28;20528;-95
2023/01/21 06:08:16;;;;;;;11.37;2.83;;;;;;;7.86;75.90;98714.59;5099511;28;20600;-96
2023/01/21 06:10:55;;;;;;;9.67;2.77;;;;;;;7.83;76.54;98726.00;5099634;28;20223;-94
2023/01/21 06:13:21;;;;;;;11.90;3.43;;;;;;;7.79;76.99;98727.06;5099743;28;20175;-96
2023/01/21 06:15:47;;;;;;;11.03;4.03;;;;;;;7.86;77.22;98741.50;5099356;28;20179;-95
2023/01/21 06:18:12;;;;;;;11.67;4.53;;;;;;;8.03;76.98;98738.94;5099594;28;20597;-95
2023/01/21 06:20:40;;;;;;;7.80;4.10;;;;;;;7.94;77.32;98743.72;5099301;28;20205;-96
2023/01/21 06:23:06;;;;;;;13.37;5.10;;;;;;;8.15;76.45;98742.69;5099417;28;20207;-95
2023/01/21 06:25:32;;;;;;;30.13;9.33;;;;;;;8.16;76.51;98749.63;5099288;28;20512;-95
2023/01/21 06:28:00;;;;;;;17.00;6.93;;;;;;;8.33;76.23;98746.22;5099486;28;20185;-94
2023/01/21 06:30:28;;;;;;;21.10;7.20;;;;;;;8.50;76.42;98748.81;5099155;28;20270;-94
2023/01/21 06:32:54;;;;;;;22.53;8.00;;;;;;;8.70;75.68;98756.47;5098956;28;20266;-94
2023/01/21 06:35:19;;;;;;;16.07;6.23;;;;;;;8.88;75.01;98749.50;5100028;28;20200;-96
2023/01/21 06:37:45;;;;;;;22.83;7.47;;;;;;;9.08;74.70;98746.66;5100107;28;20203;-94
2023/01/21 06:40:12;;;;;;;17.00;6.33;;;;;;;9.16;74.21;98750.56;5099060;28;20190;-94
2023/01/21 06:42:46;;;;;;;20.27;7.30;;;;;;;9.30;73.58;98756.84;5098901;28;20663;-94
2023/01/21 06:45:15;;;;;;;21.07;8.67;;;;;;;9.48;73.17;98758.47;5098775;28;20188;-94
2023/01/21 06:47:46;;;;;;;15.30;7.63;;;;;;;9.63;72.61;98755.00;5098605;28;20207;-95
2023/01/21 06:50:38;;;;;;;;;;;;;;;;;;;;;
2023/01/21 06:53:09;;;;;;;27.27;10.50;;;;;;;10.37;71.88;98750.81;5117148;28;20586;-95
2023/01/21 07:07:21;;;;;;;;;;;;;;;;;;;;;
2023/01/21 09:32:47;;;;;;;4.47;1.30;;;;;;;13.97;68.54;98693.66;4804637;29;20240;-93
2023/01/21 09:43:17;;;;;;;;;;;;;;;;;;;;;
2023/01/21 09:57:20;;;;;;;;;;;;;;;;;;;;;
2023/01/21 10:08:10;;;;;;;;;;;;;;;;;;;;;
2023/01/21 10:24:45;;;;;;;;;;;;;;;;;;;;;
2023/01/21 10:38:41;;;;;;;10.00;2.93;;;;;;;14.49;76.78;98682.75;4698406;30;20286;-93
2023/01/21 10:41:35;;;;;;;17.40;3.33;;;;;;;14.63;76.36;98679.06;4783735;29;20213;-94
2023/01/21 10:44:45;;;;;;;11.30;3.57;;;;;;;14.62;76.41;98680.84;4931534;28;20650;-93
2023/01/21 10:47:30;;;;;;;8.17;3.67;;;;;;;14.66;76.46;98678.84;5074053;28;20570;-92
2023/01/21 10:50:17;;;;;;;8.67;3.50;;;;;;;14.73;75.94;98672.13;5096112;28;20185;-92
2023/01/21 10:53:10;;;;;;;12.73;4.97;;;;;;;14.75;75.77;98675.50;5096041;28;20162;-93
2023/01/21 10:55:53;;;;;;;13.03;4.57;;;;;;;14.76;75.77;98677.16;5077979;28;20161;-92
2023/01/21 10:58:37;;;;;;;9.00;2.60;;;;;;;14.78;75.66;98667.34;5077862;28;20169;-89
2023/01/21 11:01:06;;;;;;;7.70;2.03;;;;;;;14.85;75.48;98665.91;5095990;28;20166;-90
2023/01/21 11:03:41;;;;;;;10.10;2.63;;;;;;;14.94;75.30;98654.63;5095567;28;20277;-88
2023/01/21 11:06:11;;;;;;;8.63;3.07;;;;;;;15.09;74.69;98642.91;5096004;28;20188;-90
2023/01/21 11:08:37;;;;;;;5.33;2.63;;;;;;;15.09;74.24;98637.63;5096127;28;20186;-91
2023/01/21 11:11:05;;;;;;;9.70;3.83;;;;;;;14.96;75.21;98631.63;5095666;28;20191;-91
2023/01/21 11:13:31;;;;;;;9.40;3.17;;;;;;;14.64;77.09;98631.50;5077822;28;20173;-90
2023/01/21 11:15:58;;;;;;;9.37;4.10;;;;;;;14.60;77.81;98623.91;5077666;28;20633;-90
2023/01/21 11:18:25;;;;;;;12.50;5.23;;;;;;;14.40;78.73;98627.22;5095640;28;20177;-91
2023/01/21 11:20:54;;;;;;;13.53;4.20;;;;;;;14.38;78.83;98631.78;5077633;28;20657;-91
2023/01/21 11:23:34;;;;;;;9.77;4.70;;;;;;;14.51;78.71;98646.56;5095221;28;20217;-90
2023/01/21 11:26:15;;;;;;;11.93;5.93;;;;;;;14.67;77.91;98646.22;5077383;28;20168;-90
2023/01/21 11:28:40;;;;;;;10.97;4.57;;;;;;;14.78;77.71;98639.16;5095738;28;20209;-89
2023/01/21 11:31:09;;;;;;;13.70;5.53;;;;;;;14.68;77.79;98630.28;5097515;28;20221;-90
2023/01/21 11:33:36;;;;;;;16.60;6.53;;;;;;;14.59;78.66;98632.78;5115826;28;20180;-89
2023/01/21 11:36:13;;;;;;;12.93;5.40;;;;;;;14.51;79.17;98643.09;5115550;28;20172;-89
2023/01/21 11:38:39;;;;;;;12.13;5.50;;;;;;;14.62;79.07;98643.13;5115278;28;20636;-90
2023/01/21 11:41:11;;;;;;;16.33;6.00;;;;;;;14.47;79.94;98639.84;5115275;28;20186;-90
2023/01/21 11:43:41;;;;;;;15.33;6.23;;;;;;;14.30;80.54;98619.16;5115193;28;20197;-89
2023/01/21 11:46:20;;;;;;;16.00;6.30;;;;;;;14.49;79.89;98613.38;5114846;28;20180;-89
2023/01/21 11:48:46;;;;;;;21.57;8.90;;;;;;;14.36;80.68;98621.34;5097268;28;20179;-89
2023/01/21 11:51:11;;;;;;;15.37;7.90;;;;;;;14.27;81.35;98626.44;5115633;28;20175;-89
2023/01/21 11:53:37;;;;;;;19.00;9.40;;;;;;;14.05;83.40;98635.97;5097146;28;20171;-89
2023/01/21 11:56:03;;;;;;;15.60;6.90;;;;;;;14.21;82.90;98621.63;5114913;28;20195;-89
2023/01/21 11:58:38;;;;;;;15.63;6.60;;;;;;;14.40;82.54;98630.72;5115560;28;20230;-88
2023/01/21 12:01:07;;;;;;;14.27;6.17;;;;;;;14.41;82.16;98623.66;5115180;28;20168;-90
2023/01/21 12:03:41;;;;;;;14.63;5.07;;;;;;;14.29;82.49;98628.00;5115351;28;20197;-90
2023/01/21 12:06:08;;;;;;;15.93;5.70;;;;;;;13.67;85.70;98622.16;5115171;28;20169;-89
2023/01/21 12:08:37;;;;;;;21.70;11.30;;;;;;;13.55;88.00;98623.03;5114751;28;20172;-89
2023/01/21 12:11:05;;;;;;;12.70;5.13;;;;;;;13.61;86.88;98625.22;5114674;28;20626;-90
2023/01/21 12:13:36;;;;;;;14.00;5.57;;;;;;;13.82;86.69;98615.75;5096788;27;20245;-88
2023/01/21 12:16:29;;;;;;;18.90;6.67;;;;;;;13.75;87.35;98629.50;5112474;27;20203;-89
2023/01/21 12:19:09;;;;;;;24.13;8.60;;;;;;;13.51;88.69;98616.31;5088265;28;20203;-90
2023/01/21 12:21:51;;;;;;;14.17;7.50;;;;;;;13.77;88.07;98619.69;5118235;27;20179;-91
2023/01/21 12:24:22;;;;;;;12.17;6.30;;;;;;;13.67;87.67;98621.31;5096637;28;20167;-91
2023/01/21 12:27:09;;;;;;;10.13;4.67;;;;;;;13.39;89.30;98622.50;5113625;28;20679;-88
2023/01/21 12:30:02;;;;;;;11.30;4.07;;;;;;;13.57;88.85;98621.97;5095903;28;20172;-90
2023/01/21 12:32:39;;;;;;;12.00;4.90;;;;;;;13.46;89.69;98621.09;5095477;28;20191;-90
2023/01/21 12:35:25;;;;;;;9.97;3.70;;;;;;;13.51;89.04;98618.97;5112757;28;20165;-89
2023/01/21 12:38:24;;;;;;;8.83;5.03;;;;;;;13.80;88.60;98617.69;5113185;28;20161;-90
2023/01/21 12:41:03;;;;;;;9.67;4.97;;;;;;;13.70;89.23;98600.88;5095869;28;20495;-90
2023/01/21 12:43:36;;;;;;;7.23;4.07;;;;;;;13.55;90.76;98609.88;5096363;28;20254;-89
2023/01/21 12:46:26;;;;;;;11.00;5.30;;;;;;;13.84;91.76;98608.56;5114687;28;20156;-90
2023/01/21 12:49:03;;;;;;;10.40;3.87;;;;;;;14.18;90.99;98600.81;5096178;28;20225;-88
2023/01/21 12:51:53;;;;;;;8.43;4.00;;;;;;;14.24;92.64;98605.59;5096034;28;20172;-90
2023/01/21 12:54:47;;;;;;;8.60;4.03;;;;;;;14.44;91.45;98605.78;5113983;28;20243;-89
2023/01/21 12:57:20;;;;;;;7.00;3.80;;;;;;;14.34;89.25;98617.16;5096889;28;20178;-90
2023/01/21 12:59:53;;;;;;;9.97;5.27;;;;;;;14.65;88.74;98619.13;5113337;28;20253;-90
2023/01/21 13:02:37;;;;;;;8.57;4.93;;;;;;;14.81;88.00;98614.34;5114428;28;20235;-88
2023/01/21 13:05:28;;;;;;;7.10;3.33;;;;;;;14.96;85.36;98623.72;5114481;28;20162;-90
2023/01/21 13:08:21;;;;;;;7.40;3.10;;;;;;;14.70;85.13;98624.91;5095910;28;20174;-90
2023/01/21 13:10:53;;;;;;;7.50;3.80;;;;;;;14.51;85.99;98622.00;5095970;28;20173;-88
2023/01/21 13:13:27;;;;;;;9.50;3.67;;;;;;;14.52;86.49;98634.19;5113972;28;20193;-89
2023/01/21 13:15:58;;;;;;;6.53;2.80;;;;;;;14.54;85.95;98641.03;5096065;28;20168;-88
2023/01/21 13:18:40;;;;;;;8.37;2.27;;;;;;;14.55;86.88;98631.34;5095841;28;20179;-89
2023/01/21 13:21:31;;;;;;;8.97;4.17;;;;;;;14.64;85.78;98635.91;5113842;28;20177;-89
2023/01/21 13:24:12;;;;;;;11.70;4.17;;;;;;;14.41;86.94;98642.13;5113930;28;20264;-88
2023/01/21 13:26:49;;;;;;;8.40;5.40;;;;;;;14.28;88.28;98649.22;5095713;28;20622;-89
2023/01/21 13:29:18;;;;;;;13.60;5.70;;;;;;;14.53;87.17;98652.56;5096348;28;20180;-90
2023/01/21 13:32:09;;;;;;;8.97;4.60;;;;;;;14.62;87.19;98654.47;5113459;28;20190;-89
2023/01/21 13:34:45;;;;;;;3.77;2.10;;;;;;;14.75;86.42;98649.94;5113831;28;20217;-89
2023/01/21 13:37:21;;;;;;;4.73;1.83;;;;;;;14.73;86.39;98651.00;5113475;28;20310;-89
2023/01/21 13:40:26;;;;;;;8.30;2.40;;;;;;;14.77;85.36;98647.19;5113929;28;20162;-90
2023/01/21 13:43:22;;;;;;;8.83;2.80;;;;;;;14.73;85.79;98645.75;5040672;28;20582;-89
2023/01/21 13:45:57;;;;;;;10.13;3.73;;;;;;;14.85;85.61;98644.81;5113932;28;20190;-90
2023/01/21 13:48:51;;;;;;;4.60;2.40;;;;;;;14.99;85.13;98647.19;5095456;28;20272;-89
2023/01/21 13:51:30;;;;;;;8.13;3.77;;;;;;;14.91;84.76;98648.78;5081427;28;20191;-89
2023/01/21 13:54:26;;;;;;;7.67;3.20;;;;;;;15.06;84.16;98653.69;5113986;28;20244;-90
2023/01/21 13:57:22;;;;;;;8.23;3.27;;;;;;;15.15;83.84;98652.97;5096349;28;20178;-89
2023/01/21 14:00:11;;;;;;;12.60;3.73;;;;;;;15.15;83.85;98657.38;5095485;28;20557;-90
2023/01/21 14:03:11;;;;;;;7.23;2.87;;;;;;;15.15;83.53;98663.50;5096306;28;20541;-91
2023/01/21 14:05:48;;;;;;;9.83;3.10;;;;;;;15.18;83.78;98650.09;5095397;28;20167;-89
2023/01/21 14:08:49;;;;;;;10.87;2.83;;;;;;;15.20;83.47;98657.88;5113667;28;20155;-90
2023/01/21 14:11:42;;;;;;;11.40;2.23;;;;;;;15.06;84.14;98658.97;5061333;28;20197;-89
2023/01/21 14:14:19;;;;;;;8.37;2.60;;;;;;;15.11;83.96;98659.44;5098212;28;20198;-90
2023/01/21 14:16:53;;;;;;;9.40;3.70;;;;;;;15.24;83.42;98646.97;5099111;28;20639;-90
2023/01/21 14:19:39;;;;;;;7.80;3.40;;;;;;;14.73;86.36;98661.56;5119654;27;20582;-90
2023/01/21 14:22:20;;;;;;;5.80;2.20;;;;;;;15.02;85.27;98656.66;5098934;28;20236;-89
2023/01/21 14:25:18;;;;;;;5.40;1.83;;;;;;;14.94;84.27;98659.91;5117114;28;20193;-91
2023/01/21 14:27:52;;;;;;;4.10;2.00;;;;;;;15.07;83.85;98665.91;5116942;27;20162;-89
2023/01/21 14:30:30;;;;;;;7.50;1.87;;;;;;;15.31;82.70;98663.16;5119232;27;20188;-89
2023/01/21 14:32:55;;;;;;;6.50;2.40;;;;;;;15.19;82.31;98664.97;5117982;27;20610;-89
2023/01/21 14:35:32;;;;;;;10.27;2.50;;;;;;;15.09;82.30;98664.03;5098940;28;20278;-90
2023/01/21 14:38:27;;;;;;;8.33;2.07;;;;;;;14.76;80.26;98671.88;5099445;28;20245;-88
2023/01/21 14:41:08;;;;;;;14.23;2.30;;;;;;;14.93;79.80;98666.16;5116956;28;20180;-88
2023/01/21 14:43:35;;;;;;;10.30;2.13;;;;;;;15.06;78.85;98669.53;5116627;28;20193;-88
2023/01/21 14:46:21;;;;;;;6.93;2.03;;;;;;;15.08;78.50;98658.84;5116265;28;20174;-89
2023/01/21 14:48:59;;;;;;;10.10;2.20;;;;;;;15.13;77.44;98661.97;5116548;28;20171;-89
2023/01/21 14:51:26;;;;;;;6.03;1.63;;;;;;;15.01;76.68;98666.41;5116554;28;20254;-88
2023/01/21 14:54:00;;;;;;;10.40;2.30;;;;;;;14.97;76.52;98670.22;5116043;28;20688;-88
2023/01/21 14:56:31;;;;;;;9.03;1.87;;;;;;;14.80;76.52;98683.06;5098237;28;20176;-89
2023/01/21 14:59:01;;;;;;;8.30;2.27;;;;;;;14.91;76.91;98681.25;5098055;28;20210;-89
2023/01/21 15:01:28;;;;;;;16.33;5.70;;;;;;;14.92;76.55;98677.66;5116225;28;20593;-88
2023/01/21 15:03:55;;;;;;;16.97;3.70;;;;;;;14.83;76.68;98678.41;5115809;28;20179;-89
2023/01/21 15:06:24;;;;;;;5.53;2.30;;;;;;;14.73;76.81;98682.69;5116462;28;20178;-87
2023/01/21 15:08:53;;;;;;;15.13;4.27;;;;;;;14.68;77.08;98680.41;5116108;28;20177;-88
2023/01/21 15:11:22;;;;;;;9.10;2.77;;;;;;;14.58;76.09;98695.25;5116002;28;20200;-88
2023/01/21 15:14:06;;;;;;;10.07;4.40;;;;;;;14.46;76.79;98705.88;5115743;28;20176;-89
2023/01/21 15:16:39;;;;;;;28.90;9.17;;;;;;;14.44;77.44;98710.44;5116046;28;20308;-89
2023/01/21 15:19:11;;;;;;;10.87;5.00;;;;;;;14.46;76.16;98711.16;5098518;28;20197;-88
2023/01/21 15:21:39;;;;;;;16.30;5.50;;;;;;;14.60;76.14;98716.22;5096541;28;20197;-88
2023/01/21 15:24:30;;;;;;;14.13;4.03;;;;;;;14.55;75.88;98726.28;5097497;28;20185;-89
2023/01/21 15:27:14;;;;;;;10.40;2.60;;;;;;;14.64;76.47;98726.44;5067755;28;20649;-89
2023/01/21 15:29:45;;;;;;;5.30;2.37;;;;;;;14.42;76.59;98731.63;5115960;28;20290;-88
2023/01/21 15:32:20;;;;;;;7.03;2.67;;;;;;;14.52;76.42;98732.63;5097376;28;20189;-88
2023/01/21 15:34:49;;;;;;;8.43;2.37;;;;;;;14.50;76.63;98733.69;5115606;28;20215;-89
2023/01/21 15:37:21;;;;;;;9.00;2.13;;;;;;;14.42;76.42;98736.91;5097274;28;20191;-89
2023/01/21 15:39:51;;;;;;;8.67;2.73;;;;;;;14.37;76.63;98738.19;5097285;28;20268;-88
2023/01/21 15:42:42;;;;;;;7.40;3.00;;;;;;;14.62;75.75;98743.34;5097038;28;20303;-88
2023/01/21 15:45:22;;;;;;;8.67;2.63;;;;;;;14.74;75.59;98747.69;5115352;28;20174;-88